createdAt,value
2022-11-09T00:01:58.699Z,4.20
2022-11-09T00:04:46.485Z,4.20
2022-11-09T00:07:34.828Z,4.20
2022-11-09T00:10:22.270Z,4.20
2022-11-09T00:13:09.959Z,4.20
2022-11-09T00:16:00.000Z,4.20
2022-11-09T00:18:49.551Z,4.30
2022-11-09T00:21:37.266Z,4.30
2022-11-09T00:24:24.994Z,4.30
2022-11-09T00:27:17.382Z,4.30
2022-11-09T00:30:06.196Z,4.30
2022-11-09T00:32:53.930Z,4.30
2022-11-09T00:35:43.254Z,4.30
2022-11-09T00:38:30.914Z,4.30
2022-11-09T00:41:18.771Z,4.30
2022-11-09T00:44:06.489Z,4.40
2022-11-09T00:46:54.478Z,4.40
2022-11-09T00:49:41.988Z,4.50
2022-11-09T00:52:31.543Z,4.50
2022-11-09T00:55:21.159Z,4.50
2022-11-09T00:58:08.912Z,4.50
2022-11-09T01:00:58.524Z,4.50
2022-11-09T01:03:46.737Z,4.50
2022-11-09T01:06:34.609Z,4.40
2022-11-09T01:09:24.750Z,4.40
2022-11-09T01:12:12.686Z,4.40
2022-11-09T01:15:00.261Z,4.50
2022-11-09T01:17:48.032Z,4.50
2022-11-09T01:20:41.333Z,4.70
2022-11-09T01:23:28.816Z,4.90
2022-11-09T01:26:21.342Z,5.00
2022-11-09T01:29:11.025Z,5.10
2022-11-09T01:31:58.855Z,5.20
2022-11-09T01:34:46.589Z,5.20
2022-11-09T01:37:34.562Z,5.20
2022-11-09T01:40:22.541Z,5.30
2022-11-09T01:43:19.349Z,5.40
2022-11-09T01:46:14.165Z,5.40
2022-11-09T01:49:04.877Z,5.50
2022-11-09T01:51:58.230Z,5.50
2022-11-09T01:54:48.428Z,5.60
2022-11-09T01:57:40.952Z,5.60
2022-11-09T02:00:32.184Z,5.60
2022-11-09T02:03:25.618Z,5.60
2022-11-09T02:06:17.710Z,5.60
2022-11-09T02:09:11.070Z,5.60
2022-11-09T02:11:59.176Z,5.50
2022-11-09T02:14:49.326Z,5.60
2022-11-09T02:17:38.894Z,5.60
2022-11-09T02:20:29.481Z,5.60
2022-11-09T02:23:20.427Z,5.60
2022-11-09T02:26:12.021Z,5.60
2022-11-09T02:29:02.555Z,5.60
2022-11-09T02:31:53.480Z,5.60
2022-11-09T02:34:41.212Z,5.60
2022-11-09T02:37:32.825Z,5.60
2022-11-09T02:40:25.450Z,5.60
2022-11-09T02:43:16.772Z,5.60
2022-11-09T02:46:05.951Z,5.60
2022-11-09T02:48:54.372Z,5.60
2022-11-09T02:51:42.203Z,5.60
2022-11-09T02:54:32.546Z,5.60
2022-11-09T02:57:20.874Z,5.70
2022-11-09T03:00:10.221Z,5.70
2022-11-09T03:02:59.168Z,5.70
2022-11-09T03:05:47.112Z,5.60
2022-11-09T03:08:35.291Z,5.60
2022-11-09T03:11:25.670Z,5.50
2022-11-09T03:14:13.823Z,5.50
2022-11-09T03:17:08.444Z,5.50
2022-11-09T03:19:56.172Z,5.50
2022-11-09T03:22:45.505Z,5.60
2022-11-09T03:25:33.422Z,5.60
2022-11-09T03:28:23.022Z,5.60
2022-11-09T03:31:12.671Z,5.50
2022-11-09T03:34:00.303Z,5.50
2022-11-09T03:36:48.295Z,5.40
2022-11-09T03:39:36.268Z,5.40
2022-11-09T03:42:23.881Z,5.30
2022-11-09T03:45:13.328Z,5.30
2022-11-09T03:48:01.116Z,5.20
2022-11-09T03:50:48.998Z,5.20
2022-11-09T03:53:36.970Z,5.10
2022-11-09T03:56:24.798Z,5.00
2022-11-09T03:59:12.511Z,4.90
2022-11-09T04:02:01.822Z,4.80
2022-11-09T04:04:49.998Z,4.80
2022-11-09T04:07:37.690Z,4.70
2022-11-09T04:10:27.183Z,4.60
2022-11-09T04:13:14.967Z,4.60
2022-11-09T04:16:03.034Z,4.60
2022-11-09T04:18:52.001Z,4.50
2022-11-09T04:21:40.761Z,4.40
2022-11-09T04:24:28.391Z,4.40
2022-11-09T04:27:16.686Z,4.30
2022-11-09T04:30:04.604Z,4.30
2022-11-09T04:32:52.399Z,4.20
2022-11-09T04:35:41.416Z,4.20
2022-11-09T04:38:32.403Z,4.10
2022-11-09T04:41:20.060Z,4.10
2022-11-09T04:44:08.036Z,4.10
2022-11-09T04:46:55.891Z,4.00
2022-11-09T04:49:43.457Z,4.00
2022-11-09T04:52:32.852Z,4.00
2022-11-09T04:55:20.525Z,3.90
2022-11-09T04:58:08.658Z,3.90
2022-11-09T05:00:56.814Z,3.90
2022-11-09T05:03:44.772Z,3.90
2022-11-09T05:06:35.644Z,3.90
2022-11-09T05:09:24.791Z,3.90
2022-11-09T05:12:12.828Z,3.90
2022-11-09T05:15:00.448Z,3.90
2022-11-09T05:17:48.445Z,3.90
2022-11-09T05:20:37.225Z,4.00
2022-11-09T05:23:42.377Z,4.00
2022-11-09T05:26:33.170Z,4.00
2022-11-09T05:29:21.002Z,4.10
2022-11-09T05:32:08.726Z,4.10
2022-11-09T05:34:56.623Z,4.10
2022-11-09T05:37:47.276Z,4.10
2022-11-09T05:40:34.866Z,4.10
2022-11-09T05:43:24.178Z,4.10
2022-11-09T05:46:11.987Z,4.10
2022-11-09T05:48:59.597Z,4.10
2022-11-09T05:51:47.574Z,4.10
2022-11-09T05:54:35.022Z,4.10
2022-11-09T05:57:22.722Z,4.20
2022-11-09T06:00:14.316Z,4.20
2022-11-09T06:03:04.160Z,4.20
2022-11-09T06:05:51.680Z,4.20
2022-11-09T06:08:39.635Z,4.20
2022-11-09T06:11:28.941Z,4.10
2022-11-09T06:14:16.887Z,4.10
2022-11-09T06:17:06.019Z,4.10
2022-11-09T06:19:53.878Z,4.00
2022-11-09T06:22:41.688Z,4.00
2022-11-09T06:25:33.129Z,4.00
2022-11-09T06:28:21.666Z,4.00
2022-11-09T06:31:12.912Z,4.00
2022-11-09T06:34:02.184Z,4.00
2022-11-09T06:36:50.199Z,3.90
2022-11-09T06:39:38.036Z,3.90
2022-11-09T06:42:26.221Z,3.90
2022-11-09T06:45:14.223Z,3.90
2022-11-09T06:48:03.581Z,3.90
2022-11-09T06:50:52.590Z,4.00
2022-11-09T06:53:41.455Z,4.00
2022-11-09T06:56:29.286Z,4.00
2022-11-09T06:59:16.879Z,4.00
2022-11-09T07:02:04.807Z,4.00
2022-11-09T07:04:53.516Z,4.10
2022-11-09T07:07:42.443Z,4.10
2022-11-09T07:10:30.340Z,4.20
2022-11-09T07:13:18.130Z,4.30
2022-11-09T07:16:06.009Z,4.40
2022-11-09T07:18:53.850Z,4.60
2022-11-09T07:21:41.324Z,4.90
2022-11-09T07:24:30.301Z,5.10
2022-11-09T07:27:17.806Z,5.30
2022-11-09T07:30:06.527Z,5.60
2022-11-09T07:33:08.712Z,5.80
2022-11-09T07:35:59.861Z,6.00
2022-11-09T07:38:47.637Z,6.20
2022-11-09T07:41:37.074Z,6.40
2022-11-09T07:44:24.895Z,6.50
2022-11-09T07:47:18.154Z,6.60
2022-11-09T07:50:07.116Z,6.90
2022-11-09T07:52:56.455Z,7.10
2022-11-09T07:55:44.480Z,7.40
2022-11-09T07:58:36.057Z,7.60
2022-11-09T08:01:24.201Z,7.80
2022-11-09T08:04:12.372Z,7.90
2022-11-09T08:07:00.530Z,8.20
2022-11-09T08:09:48.236Z,8.40
2022-11-09T08:12:37.353Z,8.60
2022-11-09T08:15:27.556Z,8.80
2022-11-09T08:18:17.649Z,9.00
2022-11-09T08:21:06.795Z,9.10
2022-11-09T08:23:54.442Z,9.30
2022-11-09T08:26:42.334Z,9.50
2022-11-09T08:29:30.110Z,9.60
2022-11-09T08:32:19.177Z,9.80
2022-11-09T08:35:10.147Z,9.90
2022-11-09T08:38:01.321Z,10.10
2022-11-09T08:40:49.575Z,10.30
2022-11-09T08:43:37.569Z,10.50
2022-11-09T08:46:25.104Z,10.60
2022-11-09T08:49:14.963Z,10.60
2022-11-09T08:52:02.683Z,10.70
2022-11-09T08:54:50.634Z,10.70
2022-11-09T08:57:38.315Z,10.90
2022-11-09T09:00:26.768Z,11.00
2022-11-09T09:03:14.649Z,11.20
2022-11-09T09:06:05.760Z,11.30
2022-11-09T09:08:53.979Z,11.50
2022-11-09T09:11:41.435Z,11.60
2022-11-09T09:14:29.289Z,11.70
2022-11-09T09:17:16.723Z,11.70
2022-11-09T09:20:05.252Z,11.80
2022-11-09T09:22:54.386Z,11.90
2022-11-09T09:25:42.375Z,12.00
2022-11-09T09:28:30.171Z,12.00
2022-11-09T09:31:18.745Z,12.10
2022-11-09T09:34:07.102Z,12.10
2022-11-09T09:36:54.895Z,12.10
2022-11-09T09:39:44.084Z,12.20
2022-11-09T09:42:35.941Z,12.20
2022-11-09T09:45:27.319Z,12.30
2022-11-09T09:48:19.582Z,12.40
2022-11-09T09:51:11.954Z,12.40
2022-11-09T09:54:03.671Z,12.50
2022-11-09T09:56:53.771Z,12.50
2022-11-09T09:59:42.256Z,12.60
2022-11-09T10:02:30.455Z,12.70
2022-11-09T10:05:18.207Z,12.70
2022-11-09T10:08:08.331Z,12.70
2022-11-09T10:11:01.832Z,12.70
2022-11-09T10:13:58.878Z,12.80
2022-11-09T10:16:49.945Z,12.80
2022-11-09T10:19:47.038Z,12.90
2022-11-09T10:22:41.356Z,12.90
2022-11-09T10:25:57.800Z,13.00
2022-11-09T10:29:09.239Z,13.00
2022-11-09T10:31:50.761Z,13.10
2022-11-09T10:34:41.051Z,13.20
2022-11-09T10:37:32.831Z,13.30
2022-11-09T10:40:22.858Z,13.50
2022-11-09T10:43:29.073Z,13.60
2022-11-09T10:47:05.755Z,13.80
2022-11-09T10:50:18.616Z,14.00
2022-11-09T10:53:26.522Z,14.30
2022-11-09T10:57:04.944Z,14.50
2022-11-09T11:00:17.489Z,14.60
2022-11-09T11:03:26.048Z,14.70
2022-11-09T11:06:32.030Z,14.90
2022-11-09T11:09:38.391Z,15.00
2022-11-09T11:12:44.924Z,15.00
2022-11-09T11:15:51.511Z,15.00
2022-11-09T11:18:59.071Z,15.10
2022-11-09T11:22:10.034Z,15.10
2022-11-09T11:25:19.346Z,15.10
2022-11-09T11:28:31.787Z,15.10
2022-11-09T11:31:37.766Z,15.10
2022-11-09T11:35:01.688Z,15.10
2022-11-09T11:38:15.307Z,15.20
2022-11-09T11:41:39.639Z,15.30
2022-11-09T11:44:59.417Z,15.40
2022-11-09T11:48:26.296Z,15.60
2022-11-09T11:51:37.658Z,15.80
2022-11-09T11:54:49.350Z,15.90
2022-11-09T11:58:02.546Z,15.90
2022-11-09T12:01:14.227Z,15.90
2022-11-09T12:04:32.567Z,16.00
2022-11-09T12:07:44.238Z,16.10
2022-11-09T12:10:56.556Z,16.20
2022-11-09T12:14:07.991Z,16.20
2022-11-09T12:17:19.162Z,16.10
2022-11-09T12:20:29.171Z,15.90
2022-11-09T12:23:42.294Z,15.70
2022-11-09T12:27:10.918Z,15.70
2022-11-09T12:30:21.456Z,15.70
2022-11-09T12:33:43.478Z,15.90
2022-11-09T12:36:53.100Z,16.40
2022-11-09T12:40:07.786Z,16.70
2022-11-09T12:43:18.482Z,17.10
2022-11-09T12:46:27.729Z,17.40
2022-11-09T12:49:35.774Z,17.50
2022-11-09T12:52:41.940Z,17.40
2022-11-09T12:55:52.489Z,17.40
2022-11-09T12:59:12.933Z,17.50
2022-11-09T13:02:23.119Z,17.60
2022-11-09T13:05:30.410Z,17.60
2022-11-09T13:08:37.071Z,17.60
2022-11-09T13:11:46.883Z,17.40
2022-11-09T13:14:52.832Z,17.30
2022-11-09T13:18:01.200Z,17.10
2022-11-09T13:21:22.465Z,17.10
2022-11-09T13:24:43.549Z,17.10
2022-11-09T13:27:51.202Z,17.10
2022-11-09T13:30:58.283Z,17.10
2022-11-09T13:34:19.239Z,17.30
2022-11-09T13:37:38.014Z,17.30
2022-11-09T13:40:47.106Z,17.20
2022-11-09T13:44:08.764Z,17.20
2022-11-09T13:47:21.960Z,17.00
2022-11-09T13:50:29.899Z,16.70
2022-11-09T13:53:55.057Z,16.50
2022-11-09T13:57:05.656Z,16.30
2022-11-09T14:00:18.948Z,16.20
2022-11-09T14:03:26.118Z,15.90
2022-11-09T14:06:33.704Z,15.70
2022-11-09T14:09:44.707Z,15.30
2022-11-09T14:12:55.984Z,15.10
2022-11-09T14:16:06.557Z,14.90
2022-11-09T14:19:17.307Z,14.60
2022-11-09T14:22:23.551Z,14.30
2022-11-09T14:25:35.585Z,14.00
2022-11-09T14:28:41.503Z,13.90
2022-11-09T14:31:49.275Z,13.80
2022-11-09T14:35:10.399Z,13.60
2022-11-09T14:38:18.810Z,13.40
2022-11-09T14:41:27.762Z,13.10
2022-11-09T14:44:40.504Z,12.90
2022-11-09T14:47:51.099Z,12.70
2022-11-09T14:51:00.479Z,12.50
2022-11-09T14:54:10.245Z,12.30
2022-11-09T14:57:18.446Z,12.10
2022-11-09T15:00:31.765Z,11.90
2022-11-09T15:03:39.532Z,11.70
2022-11-09T15:06:49.078Z,11.60
2022-11-09T15:09:58.650Z,11.50
2022-11-09T15:13:05.062Z,11.60
2022-11-09T15:16:22.450Z,11.50
2022-11-09T15:19:33.450Z,11.50
2022-11-09T15:22:49.286Z,11.40
2022-11-09T15:25:56.982Z,11.30
2022-11-09T15:29:04.170Z,11.30
2022-11-09T15:32:18.579Z,11.20
2022-11-09T15:35:26.811Z,11.10
2022-11-09T15:38:36.660Z,11.10
2022-11-09T15:41:43.015Z,11.20
2022-11-09T15:44:53.247Z,11.20
2022-11-09T15:47:59.384Z,11.20
2022-11-09T15:51:07.180Z,11.20
2022-11-09T15:54:13.549Z,11.30
2022-11-09T15:57:21.875Z,11.20
2022-11-09T16:00:28.381Z,11.10
2022-11-09T16:03:34.702Z,11.10
2022-11-09T16:06:46.360Z,11.00
2022-11-09T16:09:52.958Z,10.90
2022-11-09T16:12:59.191Z,10.80
2022-11-09T16:16:06.747Z,10.70
2022-11-09T16:19:15.336Z,10.60
2022-11-09T16:22:23.270Z,10.50
2022-11-09T16:25:29.737Z,10.30
2022-11-09T16:28:35.900Z,10.20
2022-11-09T16:31:51.393Z,10.10
2022-11-09T16:35:15.838Z,9.90
2022-11-09T16:38:25.804Z,9.80
2022-11-09T16:41:32.415Z,9.70
2022-11-09T16:44:40.926Z,9.60
2022-11-09T16:47:49.621Z,9.50
2022-11-09T16:50:56.032Z,9.40
2022-11-09T16:54:03.855Z,9.30
2022-11-09T16:57:10.814Z,9.20
2022-11-09T17:00:23.101Z,9.00
2022-11-09T17:03:29.899Z,8.90
2022-11-09T17:06:36.549Z,8.80
2022-11-09T17:09:44.376Z,8.80
2022-11-09T17:12:50.812Z,8.70
2022-11-09T17:16:12.889Z,8.60
2022-11-09T17:19:20.573Z,8.60
2022-11-09T17:22:26.795Z,8.50
2022-11-09T17:25:34.787Z,8.40
2022-11-09T17:28:43.265Z,8.50
2022-11-09T17:31:49.923Z,8.50
2022-11-09T17:34:55.967Z,8.50
2022-11-09T17:38:02.151Z,8.40
2022-11-09T17:41:23.050Z,8.40
2022-11-09T17:44:29.932Z,8.40
2022-11-09T17:47:36.208Z,8.30
2022-11-09T17:50:42.540Z,8.30
2022-11-09T17:53:48.765Z,8.30
2022-11-09T17:56:57.004Z,8.20
2022-11-09T18:00:06.649Z,8.10
2022-11-09T18:03:12.749Z,8.00
2022-11-09T18:06:20.324Z,7.90
2022-11-09T18:09:40.802Z,7.80
2022-11-09T18:12:49.424Z,7.70
2022-11-09T18:15:56.136Z,7.60
2022-11-09T18:19:04.295Z,7.50
2022-11-09T18:22:12.857Z,7.50
2022-11-09T18:25:19.813Z,7.50
2022-11-09T18:28:27.952Z,7.40
2022-11-09T18:31:33.788Z,7.40
2022-11-09T18:34:40.280Z,7.40
2022-11-09T18:37:48.525Z,7.30
2022-11-09T18:41:03.413Z,7.30
2022-11-09T18:44:12.564Z,7.30
2022-11-09T18:47:23.761Z,7.30
2022-11-09T18:50:33.621Z,7.30
2022-11-09T18:53:42.242Z,7.20
2022-11-09T18:56:49.127Z,7.10
2022-11-09T18:59:56.929Z,7.10
2022-11-09T19:03:03.555Z,7.00
2022-11-09T19:06:13.933Z,6.90
2022-11-09T19:09:35.680Z,6.90
2022-11-09T19:12:41.905Z,6.80
2022-11-09T19:15:49.976Z,6.80
2022-11-09T19:18:56.595Z,6.80
2022-11-09T19:22:03.267Z,6.70
2022-11-09T19:25:10.312Z,6.60
2022-11-09T19:28:16.590Z,6.60
2022-11-09T19:31:25.521Z,6.50
2022-11-09T19:34:32.347Z,6.40
2022-11-09T19:37:38.557Z,6.40
2022-11-09T19:40:45.154Z,6.30
2022-11-09T19:43:51.594Z,6.30
2022-11-09T19:46:59.502Z,6.20
2022-11-09T19:50:06.832Z,6.20
2022-11-09T19:53:13.259Z,6.20
2022-11-09T19:56:20.913Z,6.20
2022-11-09T19:59:27.452Z,6.20
2022-11-09T20:02:35.193Z,6.20
2022-11-09T20:05:42.001Z,6.20
2022-11-09T20:08:48.491Z,6.20
2022-11-09T20:12:12.121Z,6.30
2022-11-09T20:15:19.576Z,6.30
2022-11-09T20:18:27.773Z,6.30
2022-11-09T20:21:34.132Z,6.40
2022-11-09T20:24:40.644Z,6.40
2022-11-09T20:27:46.628Z,6.40
2022-11-09T20:30:52.689Z,6.40
2022-11-09T20:34:00.902Z,6.40
2022-11-09T20:37:06.578Z,6.40
2022-11-09T20:40:13.690Z,6.50
2022-11-09T20:43:19.421Z,6.50
2022-11-09T20:46:28.003Z,6.50
2022-11-09T20:49:37.274Z,6.50
2022-11-09T20:52:43.250Z,6.50
2022-11-09T20:55:53.200Z,6.50
2022-11-09T20:58:59.160Z,6.50
2022-11-09T21:02:05.852Z,6.50
2022-11-09T21:05:13.442Z,6.50
2022-11-09T21:08:20.349Z,6.50
2022-11-09T21:11:28.794Z,6.50
2022-11-09T21:14:34.958Z,6.50
2022-11-09T21:17:41.175Z,6.50
2022-11-09T21:20:49.127Z,6.50
2022-11-09T21:24:27.188Z,6.50
2022-11-09T21:27:51.130Z,6.50
2022-11-09T21:31:01.601Z,6.60
2022-11-09T21:34:08.051Z,6.60
2022-11-09T21:37:18.850Z,6.60
2022-11-09T21:40:25.050Z,6.60
2022-11-09T21:43:30.844Z,6.70
2022-11-09T21:46:38.081Z,6.70
2022-11-09T21:49:44.071Z,6.80
2022-11-09T21:52:51.299Z,6.80
2022-11-09T21:56:00.122Z,6.70
2022-11-09T21:59:06.681Z,6.80
2022-11-09T22:02:13.204Z,6.80
2022-11-09T22:05:22.938Z,6.80
2022-11-09T22:08:31.166Z,6.90
2022-11-09T22:11:54.625Z,6.90
2022-11-09T22:15:20.310Z,6.90
2022-11-09T22:18:49.544Z,7.00
2022-11-09T22:21:56.084Z,7.00
2022-11-09T22:25:04.012Z,7.00
2022-11-09T22:28:09.944Z,7.00
2022-11-09T22:31:16.250Z,7.00
2022-11-09T22:34:22.535Z,7.00
2022-11-09T22:37:28.632Z,7.00
2022-11-09T22:40:36.406Z,7.00
2022-11-09T22:43:44.338Z,7.10
2022-11-09T22:46:50.699Z,7.00
2022-11-09T22:49:57.036Z,7.10
2022-11-09T22:53:04.030Z,7.10
2022-11-09T22:56:12.588Z,7.00
2022-11-09T22:59:18.718Z,7.10
2022-11-09T23:02:24.617Z,7.10
2022-11-09T23:05:30.878Z,7.10
2022-11-09T23:08:38.314Z,7.10
2022-11-09T23:11:46.021Z,7.10
2022-11-09T23:15:12.767Z,7.20
2022-11-09T23:18:36.915Z,7.20
2022-11-09T23:21:43.319Z,7.20
2022-11-09T23:25:06.794Z,7.20
2022-11-09T23:28:15.282Z,7.20
2022-11-09T23:31:24.503Z,7.20
2022-11-09T23:34:30.459Z,7.20
2022-11-09T23:37:36.519Z,7.20
2022-11-09T23:40:42.575Z,7.20
2022-11-09T23:43:50.426Z,7.20
2022-11-09T23:46:56.965Z,7.20
2022-11-09T23:50:02.917Z,7.20
2022-11-09T23:53:09.358Z,7.30
2022-11-09T23:56:15.575Z,7.30
2022-11-09T23:59:23.440Z,7.30
